sensor_id;sensor_type;location;lat;lon;timestamp;P1;durP1;ratioP1;P2;durP2;ratioP2
69795;SDS011;57073;45.650;9.612;2023-06-22T00:03:25;12.50;;;6.97;;
69795;SDS011;57073;45.650;9.612;2023-06-22T00:08:25;11.17;;;6.97;;
69795;SDS011;57073;45.650;9.612;2023-06-22T00:13:26;10.40;;;6.87;;
69795;SDS011;57073;45.650;9.612;2023-06-22T00:18:26;11.53;;;6.80;;
69795;SDS011;57073;45.650;9.612;2023-06-22T00:23:27;12.90;;;7.10;;
69795;SDS011;57073;45.650;9.612;2023-06-22T00:28:28;9.57;;;6.30;;
69795;SDS011;57073;45.650;9.612;2023-06-22T00:33:29;12.77;;;6.80;;
69795;SDS011;57073;45.650;9.612;2023-06-22T00:38:29;11.20;;;6.70;;
69795;SDS011;57073;45.650;9.612;2023-06-22T00:43:29;13.85;;;7.35;;
69795;SDS011;57073;45.650;9.612;2023-06-22T00:48:30;10.85;;;6.50;;
69795;SDS011;57073;45.650;9.612;2023-06-22T00:53:30;10.07;;;6.70;;
69795;SDS011;57073;45.650;9.612;2023-06-22T00:58:35;10.83;;;6.70;;
69795;SDS011;57073;45.650;9.612;2023-06-22T01:03:36;12.57;;;6.77;;
69795;SDS011;57073;45.650;9.612;2023-06-22T01:19:13;11.77;;;6.60;;
69795;SDS011;57073;45.650;9.612;2023-06-22T01:29:52;10.13;;;6.32;;
69795;SDS011;57073;45.650;9.612;2023-06-22T01:35:00;11.38;;;6.47;;
69795;SDS011;57073;45.650;9.612;2023-06-22T01:40:03;14.03;;;6.77;;
69795;SDS011;57073;45.650;9.612;2023-06-22T01:45:06;12.00;;;6.35;;
69795;SDS011;57073;45.650;9.612;2023-06-22T01:50:07;9.93;;;6.68;;
69795;SDS011;57073;45.650;9.612;2023-06-22T01:55:09;9.57;;;6.33;;
69795;SDS011;57073;45.650;9.612;2023-06-22T02:00:11;12.57;;;6.00;;
69795;SDS011;57073;45.650;9.612;2023-06-22T02:05:15;13.93;;;7.13;;
69795;SDS011;57073;45.650;9.612;2023-06-22T02:10:19;12.48;;;6.80;;
69795;SDS011;57073;45.650;9.612;2023-06-22T02:15:22;10.32;;;6.10;;
69795;SDS011;57073;45.650;9.612;2023-06-22T02:20:23;13.60;;;7.10;;
69795;SDS011;57073;45.650;9.612;2023-06-22T02:25:24;10.27;;;6.27;;
69795;SDS011;57073;45.650;9.612;2023-06-22T02:30:24;11.43;;;6.60;;
69795;SDS011;57073;45.650;9.612;2023-06-22T02:35:25;11.27;;;6.70;;
69795;SDS011;57073;45.650;9.612;2023-06-22T02:40:26;10.82;;;6.30;;
69795;SDS011;57073;45.650;9.612;2023-06-22T02:45:27;12.68;;;6.47;;
69795;SDS011;57073;45.650;9.612;2023-06-22T02:50:27;13.33;;;6.10;;
69795;SDS011;57073;45.650;9.612;2023-06-22T02:55:28;11.03;;;6.23;;
69795;SDS011;57073;45.650;9.612;2023-06-22T03:00:28;15.80;;;6.13;;
69795;SDS011;57073;45.650;9.612;2023-06-22T03:05:30;11.35;;;6.05;;
69795;SDS011;57073;45.650;9.612;2023-06-22T03:10:32;12.53;;;6.57;;
69795;SDS011;57073;45.650;9.612;2023-06-22T03:15:33;15.10;;;6.50;;
69795;SDS011;57073;45.650;9.612;2023-06-22T03:20:33;12.75;;;6.60;;
69795;SDS011;57073;45.650;9.612;2023-06-22T03:25:34;13.03;;;6.17;;
69795;SDS011;57073;45.650;9.612;2023-06-22T03:30:35;11.43;;;6.30;;
69795;SDS011;57073;45.650;9.612;2023-06-22T03:35:36;11.13;;;6.30;;
69795;SDS011;57073;45.650;9.612;2023-06-22T03:40:36;12.67;;;6.80;;
69795;SDS011;57073;45.650;9.612;2023-06-22T03:45:36;11.35;;;6.78;;
69795;SDS011;57073;45.650;9.612;2023-06-22T03:50:37;9.93;;;6.00;;
69795;SDS011;57073;45.650;9.612;2023-06-22T03:55:40;11.90;;;6.30;;
69795;SDS011;57073;45.650;9.612;2023-06-22T04:00:48;11.23;;;6.65;;
69795;SDS011;57073;45.650;9.612;2023-06-22T04:05:50;12.07;;;5.80;;
69795;SDS011;57073;45.650;9.612;2023-06-22T04:10:50;13.10;;;6.20;;
69795;SDS011;57073;45.650;9.612;2023-06-22T04:15:51;13.70;;;6.90;;
69795;SDS011;57073;45.650;9.612;2023-06-22T04:20:51;12.47;;;6.40;;
69795;SDS011;57073;45.650;9.612;2023-06-22T04:25:51;10.57;;;5.93;;
69795;SDS011;57073;45.650;9.612;2023-06-22T04:30:52;11.85;;;6.40;;
69795;SDS011;57073;45.650;9.612;2023-06-22T04:35:52;11.87;;;6.20;;
69795;SDS011;57073;45.650;9.612;2023-06-22T04:40:53;10.80;;;6.00;;
69795;SDS011;57073;45.650;9.612;2023-06-22T04:45:53;12.67;;;6.10;;
69795;SDS011;57073;45.650;9.612;2023-06-22T04:50:53;13.53;;;6.10;;
69795;SDS011;57073;45.650;9.612;2023-06-22T04:55:54;10.37;;;6.40;;
69795;SDS011;57073;45.650;9.612;2023-06-22T05:00:54;10.97;;;5.90;;
69795;SDS011;57073;45.650;9.612;2023-06-22T05:05:56;10.52;;;6.00;;
69795;SDS011;57073;45.650;9.612;2023-06-22T05:10:57;14.17;;;6.60;;
69795;SDS011;57073;45.650;9.612;2023-06-22T05:15:57;17.83;;;6.60;;
69795;SDS011;57073;45.650;9.612;2023-06-22T05:21:01;11.60;;;6.35;;
69795;SDS011;57073;45.650;9.612;2023-06-22T05:26:01;10.57;;;5.80;;
69795;SDS011;57073;45.650;9.612;2023-06-22T05:31:01;12.53;;;6.30;;
69795;SDS011;57073;45.650;9.612;2023-06-22T05:36:02;18.37;;;6.63;;
69795;SDS011;57073;45.650;9.612;2023-06-22T05:41:02;11.83;;;6.27;;
69795;SDS011;57073;45.650;9.612;2023-06-22T05:46:03;10.53;;;6.17;;
69795;SDS011;57073;45.650;9.612;2023-06-22T05:51:04;14.38;;;6.68;;
69795;SDS011;57073;45.650;9.612;2023-06-22T05:56:04;12.93;;;6.30;;
69795;SDS011;57073;45.650;9.612;2023-06-22T06:01:05;14.57;;;6.73;;
69795;SDS011;57073;45.650;9.612;2023-06-22T06:06:05;14.70;;;6.53;;
69795;SDS011;57073;45.650;9.612;2023-06-22T06:11:06;9.90;;;6.27;;
69795;SDS011;57073;45.650;9.612;2023-06-22T06:16:06;17.13;;;6.27;;
69795;SDS011;57073;45.650;9.612;2023-06-22T06:21:06;14.27;;;6.07;;
69795;SDS011;57073;45.650;9.612;2023-06-22T06:26:07;14.00;;;6.43;;
69795;SDS011;57073;45.650;9.612;2023-06-22T06:31:07;15.47;;;6.27;;
69795;SDS011;57073;45.650;9.612;2023-06-22T06:36:08;11.10;;;5.13;;
69795;SDS011;57073;45.650;9.612;2023-06-22T06:41:09;15.07;;;6.17;;
69795;SDS011;57073;45.650;9.612;2023-06-22T06:46:09;14.67;;;6.23;;
69795;SDS011;57073;45.650;9.612;2023-06-22T06:51:09;14.03;;;5.63;;
69795;SDS011;57073;45.650;9.612;2023-06-22T06:56:10;14.53;;;5.43;;
69795;SDS011;57073;45.650;9.612;2023-06-22T07:01:11;18.60;;;6.23;;
69795;SDS011;57073;45.650;9.612;2023-06-22T07:06:13;13.43;;;6.40;;
69795;SDS011;57073;45.650;9.612;2023-06-22T07:11:13;15.53;;;6.40;;
69795;SDS011;57073;45.650;9.612;2023-06-22T07:16:13;14.17;;;6.27;;
69795;SDS011;57073;45.650;9.612;2023-06-22T07:21:14;15.90;;;6.30;;
69795;SDS011;57073;45.650;9.612;2023-06-22T07:26:14;14.57;;;6.90;;
69795;SDS011;57073;45.650;9.612;2023-06-22T07:31:16;13.50;;;7.20;;
69795;SDS011;57073;45.650;9.612;2023-06-22T07:36:17;13.47;;;7.57;;
69795;SDS011;57073;45.650;9.612;2023-06-22T07:41:18;16.30;;;6.93;;
69795;SDS011;57073;45.650;9.612;2023-06-22T07:46:19;16.60;;;7.20;;
69795;SDS011;57073;45.650;9.612;2023-06-22T07:51:20;14.77;;;7.73;;
69795;SDS011;57073;45.650;9.612;2023-06-22T07:56:20;12.77;;;6.93;;
69795;SDS011;57073;45.650;9.612;2023-06-22T08:01:20;16.93;;;7.30;;
69795;SDS011;57073;45.650;9.612;2023-06-22T08:06:21;14.60;;;7.33;;
69795;SDS011;57073;45.650;9.612;2023-06-22T08:11:21;13.13;;;7.23;;
69795;SDS011;57073;45.650;9.612;2023-06-22T08:16:23;12.13;;;7.10;;
69795;SDS011;57073;45.650;9.612;2023-06-22T08:21:24;19.83;;;8.20;;
69795;SDS011;57073;45.650;9.612;2023-06-22T08:26:24;17.23;;;8.60;;
69795;SDS011;57073;45.650;9.612;2023-06-22T08:31:25;19.07;;;9.33;;
69795;SDS011;57073;45.650;9.612;2023-06-22T08:36:25;16.30;;;9.37;;
69795;SDS011;57073;45.650;9.612;2023-06-22T08:41:29;12.88;;;9.07;;
69795;SDS011;57073;45.650;9.612;2023-06-22T08:46:29;14.70;;;8.27;;
69795;SDS011;57073;45.650;9.612;2023-06-22T08:51:30;16.30;;;8.70;;
69795;SDS011;57073;45.650;9.612;2023-06-22T08:56:30;20.57;;;8.70;;
69795;SDS011;57073;45.650;9.612;2023-06-22T09:01:30;15.80;;;8.40;;
69795;SDS011;57073;45.650;9.612;2023-06-22T09:06:31;16.43;;;8.20;;
69795;SDS011;57073;45.650;9.612;2023-06-22T09:11:32;14.07;;;8.00;;
69795;SDS011;57073;45.650;9.612;2023-06-22T09:16:32;15.23;;;7.93;;
69795;SDS011;57073;45.650;9.612;2023-06-22T09:21:32;13.23;;;7.80;;
69795;SDS011;57073;45.650;9.612;2023-06-22T09:26:33;15.63;;;8.73;;
69795;SDS011;57073;45.650;9.612;2023-06-22T09:31:33;12.70;;;8.13;;
69795;SDS011;57073;45.650;9.612;2023-06-22T09:36:34;10.47;;;7.13;;
69795;SDS011;57073;45.650;9.612;2023-06-22T09:41:35;17.15;;;9.13;;
69795;SDS011;57073;45.650;9.612;2023-06-22T09:46:35;14.97;;;9.13;;
69795;SDS011;57073;45.650;9.612;2023-06-22T09:51:36;15.73;;;8.30;;
69795;SDS011;57073;45.650;9.612;2023-06-22T09:56:36;9.67;;;7.57;;
69795;SDS011;57073;45.650;9.612;2023-06-22T10:01:37;20.42;;;8.07;;
69795;SDS011;57073;45.650;9.612;2023-06-22T10:06:38;16.57;;;8.70;;
69795;SDS011;57073;45.650;9.612;2023-06-22T10:11:40;16.47;;;8.60;;
69795;SDS011;57073;45.650;9.612;2023-06-22T10:16:40;15.60;;;8.43;;
69795;SDS011;57073;45.650;9.612;2023-06-22T10:21:41;11.43;;;7.70;;
69795;SDS011;57073;45.650;9.612;2023-06-22T10:26:41;12.83;;;7.23;;
69795;SDS011;57073;45.650;9.612;2023-06-22T10:31:42;12.93;;;7.00;;
69795;SDS011;57073;45.650;9.612;2023-06-22T10:36:42;12.67;;;7.50;;
69795;SDS011;57073;45.650;9.612;2023-06-22T10:41:42;12.30;;;7.50;;
69795;SDS011;57073;45.650;9.612;2023-06-22T10:46:43;12.47;;;7.67;;
69795;SDS011;57073;45.650;9.612;2023-06-22T10:51:43;12.33;;;8.20;;
69795;SDS011;57073;45.650;9.612;2023-06-22T10:56:44;13.10;;;7.60;;
69795;SDS011;57073;45.650;9.612;2023-06-22T11:01:44;12.97;;;7.93;;
69795;SDS011;57073;45.650;9.612;2023-06-22T11:06:44;13.90;;;8.50;;
69795;SDS011;57073;45.650;9.612;2023-06-22T11:11:45;14.73;;;8.90;;
69795;SDS011;57073;45.650;9.612;2023-06-22T11:16:45;19.67;;;8.90;;
69795;SDS011;57073;45.650;9.612;2023-06-22T11:21:49;18.80;;;8.20;;
69795;SDS011;57073;45.650;9.612;2023-06-22T11:26:49;14.17;;;7.87;;
69795;SDS011;57073;45.650;9.612;2023-06-22T11:31:50;12.97;;;7.40;;
69795;SDS011;57073;45.650;9.612;2023-06-22T11:36:50;15.73;;;7.10;;
69795;SDS011;57073;45.650;9.612;2023-06-22T11:41:50;12.87;;;6.80;;
69795;SDS011;57073;45.650;9.612;2023-06-22T11:46:51;13.33;;;6.13;;
69795;SDS011;57073;45.650;9.612;2023-06-22T11:51:51;11.00;;;6.40;;
69795;SDS011;57073;45.650;9.612;2023-06-22T11:56:51;13.27;;;6.90;;
69795;SDS011;57073;45.650;9.612;2023-06-22T12:01:52;13.77;;;6.90;;
69795;SDS011;57073;45.650;9.612;2023-06-22T12:06:52;10.03;;;7.27;;
69795;SDS011;57073;45.650;9.612;2023-06-22T12:11:52;14.23;;;7.87;;
69795;SDS011;57073;45.650;9.612;2023-06-22T12:16:53;12.30;;;7.43;;
69795;SDS011;57073;45.650;9.612;2023-06-22T12:21:53;15.93;;;7.90;;
69795;SDS011;57073;45.650;9.612;2023-06-22T12:26:53;17.13;;;8.13;;
69795;SDS011;57073;45.650;9.612;2023-06-22T12:31:54;14.63;;;7.43;;
69795;SDS011;57073;45.650;9.612;2023-06-22T12:36:54;13.23;;;6.87;;
69795;SDS011;57073;45.650;9.612;2023-06-22T12:41:55;12.40;;;6.40;;
69795;SDS011;57073;45.650;9.612;2023-06-22T12:46:55;15.17;;;6.50;;
69795;SDS011;57073;45.650;9.612;2023-06-22T12:51:55;11.33;;;6.57;;
69795;SDS011;57073;45.650;9.612;2023-06-22T12:56:56;15.60;;;7.60;;
69795;SDS011;57073;45.650;9.612;2023-06-22T13:01:56;12.53;;;7.10;;
69795;SDS011;57073;45.650;9.612;2023-06-22T13:06:56;13.03;;;7.87;;
69795;SDS011;57073;45.650;9.612;2023-06-22T13:11:57;19.80;;;9.13;;
69795;SDS011;57073;45.650;9.612;2023-06-22T13:16:57;16.73;;;9.60;;
69795;SDS011;57073;45.650;9.612;2023-06-22T13:21:58;11.33;;;7.90;;
69795;SDS011;57073;45.650;9.612;2023-06-22T13:26:59;19.60;;;9.75;;
69795;SDS011;57073;45.650;9.612;2023-06-22T13:31:59;14.83;;;9.40;;
69795;SDS011;57073;45.650;9.612;2023-06-22T13:37:00;14.70;;;9.37;;
69795;SDS011;57073;45.650;9.612;2023-06-22T13:42:00;15.03;;;9.27;;
69795;SDS011;57073;45.650;9.612;2023-06-22T13:47:01;13.53;;;8.80;;
69795;SDS011;57073;45.650;9.612;2023-06-22T13:52:01;18.77;;;8.93;;
69795;SDS011;57073;45.650;9.612;2023-06-22T13:57:03;16.45;;;9.27;;
69795;SDS011;57073;45.650;9.612;2023-06-22T14:02:04;15.88;;;9.13;;
69795;SDS011;57073;45.650;9.612;2023-06-22T14:07:05;17.77;;;9.53;;
69795;SDS011;57073;45.650;9.612;2023-06-22T14:12:06;12.67;;;9.73;;
69795;SDS011;57073;45.650;9.612;2023-06-22T14:17:07;14.52;;;9.60;;
69795;SDS011;57073;45.650;9.612;2023-06-22T14:22:07;19.17;;;9.30;;
69795;SDS011;57073;45.650;9.612;2023-06-22T14:27:07;16.93;;;10.23;;
69795;SDS011;57073;45.650;9.612;2023-06-22T14:32:09;14.30;;;9.20;;
69795;SDS011;57073;45.650;9.612;2023-06-22T14:37:10;12.50;;;8.32;;
69795;SDS011;57073;45.650;9.612;2023-06-22T14:42:10;18.10;;;9.03;;
69795;SDS011;57073;45.650;9.612;2023-06-22T14:47:10;12.87;;;8.33;;
69795;SDS011;57073;45.650;9.612;2023-06-22T14:52:11;15.10;;;9.03;;
69795;SDS011;57073;45.650;9.612;2023-06-22T14:57:11;14.43;;;8.40;;
69795;SDS011;57073;45.650;9.612;2023-06-22T15:02:12;14.67;;;8.03;;
69795;SDS011;57073;45.650;9.612;2023-06-22T15:07:12;14.20;;;7.73;;
69795;SDS011;57073;45.650;9.612;2023-06-22T15:12:13;15.43;;;8.43;;
69795;SDS011;57073;45.650;9.612;2023-06-22T15:17:13;13.90;;;8.43;;
69795;SDS011;57073;45.650;9.612;2023-06-22T15:22:15;17.75;;;8.43;;
69795;SDS011;57073;45.650;9.612;2023-06-22T15:27:18;13.15;;;8.45;;
69795;SDS011;57073;45.650;9.612;2023-06-22T15:32:19;12.73;;;8.30;;
69795;SDS011;57073;45.650;9.612;2023-06-22T15:37:19;14.50;;;8.27;;
69795;SDS011;57073;45.650;9.612;2023-06-22T15:42:20;13.40;;;7.43;;
69795;SDS011;57073;45.650;9.612;2023-06-22T15:47:20;17.97;;;8.10;;
69795;SDS011;57073;45.650;9.612;2023-06-22T15:52:22;15.15;;;7.90;;
69795;SDS011;57073;45.650;9.612;2023-06-22T15:57:23;20.63;;;7.80;;
69795;SDS011;57073;45.650;9.612;2023-06-22T16:02:26;13.68;;;7.10;;
69795;SDS011;57073;45.650;9.612;2023-06-22T16:07:27;12.23;;;7.22;;
69795;SDS011;57073;45.650;9.612;2023-06-22T16:12:27;13.47;;;7.43;;
69795;SDS011;57073;45.650;9.612;2023-06-22T16:17:29;13.77;;;7.53;;
69795;SDS011;57073;45.650;9.612;2023-06-22T16:22:29;10.50;;;7.33;;
69795;SDS011;57073;45.650;9.612;2023-06-22T16:27:29;9.40;;;6.57;;
69795;SDS011;57073;45.650;9.612;2023-06-22T16:32:31;10.35;;;6.75;;
69795;SDS011;57073;45.650;9.612;2023-06-22T16:37:32;11.83;;;7.80;;
69795;SDS011;57073;45.650;9.612;2023-06-22T16:42:32;11.00;;;7.20;;
69795;SDS011;57073;45.650;9.612;2023-06-22T16:47:34;14.57;;;7.68;;
69795;SDS011;57073;45.650;9.612;2023-06-22T16:52:35;17.03;;;7.60;;
69795;SDS011;57073;45.650;9.612;2023-06-22T16:57:38;9.80;;;7.18;;
69795;SDS011;57073;45.650;9.612;2023-06-22T17:02:41;10.30;;;6.40;;
69795;SDS011;57073;45.650;9.612;2023-06-22T17:07:56;16.60;;;6.43;;
69795;SDS011;57073;45.650;9.612;2023-06-22T17:13:02;10.80;;;6.27;;
69795;SDS011;57073;45.650;9.612;2023-06-22T17:18:04;14.32;;;6.82;;
69795;SDS011;57073;45.650;9.612;2023-06-22T17:23:06;11.85;;;6.78;;
69795;SDS011;57073;45.650;9.612;2023-06-22T17:28:06;10.60;;;6.77;;
69795;SDS011;57073;45.650;9.612;2023-06-22T17:33:12;15.53;;;6.70;;
69795;SDS011;57073;45.650;9.612;2023-06-22T17:38:20;11.82;;;6.60;;
69795;SDS011;57073;45.650;9.612;2023-06-22T17:43:25;14.83;;;6.20;;
69795;SDS011;57073;45.650;9.612;2023-06-22T17:48:25;9.40;;;7.00;;
69795;SDS011;57073;45.650;9.612;2023-06-22T17:53:29;10.57;;;7.00;;
69795;SDS011;57073;45.650;9.612;2023-06-22T17:58:30;10.20;;;6.90;;
69795;SDS011;57073;45.650;9.612;2023-06-22T18:03:30;9.53;;;5.90;;
69795;SDS011;57073;45.650;9.612;2023-06-22T18:08:30;8.63;;;6.20;;
69795;SDS011;57073;45.650;9.612;2023-06-22T18:13:32;9.50;;;5.57;;
69795;SDS011;57073;45.650;9.612;2023-06-22T18:18:33;8.90;;;6.20;;
69795;SDS011;57073;45.650;9.612;2023-06-22T18:23:35;12.52;;;7.43;;
69795;SDS011;57073;45.650;9.612;2023-06-22T18:28:36;10.40;;;6.90;;
69795;SDS011;57073;45.650;9.612;2023-06-22T18:33:37;10.18;;;6.55;;
69795;SDS011;57073;45.650;9.612;2023-06-22T18:38:40;11.60;;;6.30;;
69795;SDS011;57073;45.650;9.612;2023-06-22T18:43:42;13.88;;;7.10;;
69795;SDS011;57073;45.650;9.612;2023-06-22T18:48:43;9.47;;;6.27;;
69795;SDS011;57073;45.650;9.612;2023-06-22T18:53:43;9.18;;;5.43;;
69795;SDS011;57073;45.650;9.612;2023-06-22T18:58:44;12.20;;;5.80;;
69795;SDS011;57073;45.650;9.612;2023-06-22T19:03:56;13.60;;;6.63;;
69795;SDS011;57073;45.650;9.612;2023-06-22T19:09:15;12.23;;;7.33;;
69795;SDS011;57073;45.650;9.612;2023-06-22T19:14:19;13.32;;;7.60;;
69795;SDS011;57073;45.650;9.612;2023-06-22T19:19:20;16.38;;;8.40;;
69795;SDS011;57073;45.650;9.612;2023-06-22T19:24:30;17.27;;;9.23;;
69795;SDS011;57073;45.650;9.612;2023-06-22T19:29:32;15.17;;;8.67;;
69795;SDS011;57073;45.650;9.612;2023-06-22T19:34:34;12.88;;;8.32;;
69795;SDS011;57073;45.650;9.612;2023-06-22T19:39:36;13.07;;;8.60;;
69795;SDS011;57073;45.650;9.612;2023-06-22T19:44:37;13.47;;;8.50;;
69795;SDS011;57073;45.650;9.612;2023-06-22T19:49:37;15.45;;;9.38;;
69795;SDS011;57073;45.650;9.612;2023-06-22T19:54:38;15.80;;;9.43;;
69795;SDS011;57073;45.650;9.612;2023-06-22T19:59:40;14.60;;;8.57;;
69795;SDS011;57073;45.650;9.612;2023-06-22T20:04:40;16.23;;;8.83;;
69795;SDS011;57073;45.650;9.612;2023-06-22T20:09:41;15.80;;;9.20;;
69795;SDS011;57073;45.650;9.612;2023-06-22T20:14:42;19.17;;;9.57;;
69795;SDS011;57073;45.650;9.612;2023-06-22T20:19:43;14.70;;;9.10;;
69795;SDS011;57073;45.650;9.612;2023-06-22T20:24:45;16.05;;;9.98;;
69795;SDS011;57073;45.650;9.612;2023-06-22T20:29:45;22.30;;;9.90;;
69795;SDS011;57073;45.650;9.612;2023-06-22T20:34:46;19.03;;;11.57;;
69795;SDS011;57073;45.650;9.612;2023-06-22T20:39:47;21.02;;;12.00;;
69795;SDS011;57073;45.650;9.612;2023-06-22T20:44:48;16.07;;;10.50;;
69795;SDS011;57073;45.650;9.612;2023-06-22T20:49:49;15.77;;;9.83;;
69795;SDS011;57073;45.650;9.612;2023-06-22T20:54:50;14.73;;;9.90;;
69795;SDS011;57073;45.650;9.612;2023-06-22T20:59:52;16.35;;;10.02;;
69795;SDS011;57073;45.650;9.612;2023-06-22T21:04:52;13.00;;;9.53;;
69795;SDS011;57073;45.650;9.612;2023-06-22T21:09:54;14.07;;;9.80;;
69795;SDS011;57073;45.650;9.612;2023-06-22T21:14:55;15.50;;;9.60;;
69795;SDS011;57073;45.650;9.612;2023-06-22T21:19:56;14.65;;;9.13;;
69795;SDS011;57073;45.650;9.612;2023-06-22T21:25:06;13.33;;;9.60;;
69795;SDS011;57073;45.650;9.612;2023-06-22T21:30:11;15.85;;;9.32;;
69795;SDS011;57073;45.650;9.612;2023-06-22T21:35:12;16.80;;;9.70;;
69795;SDS011;57073;45.650;9.612;2023-06-22T21:40:13;17.70;;;10.37;;
69795;SDS011;57073;45.650;9.612;2023-06-22T21:45:14;12.20;;;9.03;;
69795;SDS011;57073;45.650;9.612;2023-06-22T21:50:14;17.77;;;8.87;;
69795;SDS011;57073;45.650;9.612;2023-06-22T21:55:15;16.65;;;9.10;;
69795;SDS011;57073;45.650;9.612;2023-06-22T22:00:15;14.50;;;9.30;;
69795;SDS011;57073;45.650;9.612;2023-06-22T22:05:15;20.07;;;9.17;;
69795;SDS011;57073;45.650;9.612;2023-06-22T22:10:18;13.87;;;8.33;;
69795;SDS011;57073;45.650;9.612;2023-06-22T22:15:18;15.17;;;8.30;;
69795;SDS011;57073;45.650;9.612;2023-06-22T22:20:19;16.43;;;7.77;;
69795;SDS011;57073;45.650;9.612;2023-06-22T22:25:19;16.70;;;9.00;;
69795;SDS011;57073;45.650;9.612;2023-06-22T22:30:20;17.10;;;8.13;;
69795;SDS011;57073;45.650;9.612;2023-06-22T22:35:20;14.60;;;7.87;;
69795;SDS011;57073;45.650;9.612;2023-06-22T22:40:20;13.63;;;7.45;;
69795;SDS011;57073;45.650;9.612;2023-06-22T22:45:21;13.00;;;7.20;;
69795;SDS011;57073;45.650;9.612;2023-06-22T22:50:21;15.73;;;7.20;;
69795;SDS011;57073;45.650;9.612;2023-06-22T22:55:21;13.33;;;7.83;;
69795;SDS011;57073;45.650;9.612;2023-06-22T23:00:22;16.40;;;7.93;;
69795;SDS011;57073;45.650;9.612;2023-06-22T23:05:22;15.40;;;7.03;;
69795;SDS011;57073;45.650;9.612;2023-06-22T23:10:23;13.03;;;7.13;;
69795;SDS011;57073;45.650;9.612;2023-06-22T23:15:23;13.13;;;8.20;;
69795;SDS011;57073;45.650;9.612;2023-06-22T23:20:23;13.83;;;7.87;;
69795;SDS011;57073;45.650;9.612;2023-06-22T23:25:26;14.60;;;8.00;;
69795;SDS011;57073;45.650;9.612;2023-06-22T23:30:27;11.70;;;7.80;;
69795;SDS011;57073;45.650;9.612;2023-06-22T23:35:28;11.87;;;7.87;;
69795;SDS011;57073;45.650;9.612;2023-06-22T23:40:28;16.40;;;7.80;;
69795;SDS011;57073;45.650;9.612;2023-06-22T23:45:30;13.45;;;7.90;;
69795;SDS011;57073;45.650;9.612;2023-06-22T23:50:31;15.20;;;8.60;;
69795;SDS011;57073;45.650;9.612;2023-06-22T23:55:31;13.17;;;8.20;;
